sensor_id;sensor_type;location;lat;lon;timestamp;P1;durP1;ratioP1;P2;durP2;ratioP2
40815;SDS011;26535;48.788;9.214;2023-03-11T00:00:30;1.67;;;0.50;;
40815;SDS011;26535;48.788;9.214;2023-03-11T00:02:59;1.33;;;0.50;;
40815;SDS011;26535;48.788;9.214;2023-03-11T00:05:27;1.25;;;0.50;;
40815;SDS011;26535;48.788;9.214;2023-03-11T00:07:55;1.77;;;0.60;;
40815;SDS011;26535;48.788;9.214;2023-03-11T00:10:22;1.67;;;0.60;;
40815;SDS011;26535;48.788;9.214;2023-03-11T00:12:54;1.90;;;0.65;;
40815;SDS011;26535;48.788;9.214;2023-03-11T00:15:20;1.77;;;0.50;;
40815;SDS011;26535;48.788;9.214;2023-03-11T00:17:46;2.65;;;0.60;;
40815;SDS011;26535;48.788;9.214;2023-03-11T00:20:15;1.38;;;0.57;;
40815;SDS011;26535;48.788;9.214;2023-03-11T00:22:46;1.45;;;0.60;;
40815;SDS011;26535;48.788;9.214;2023-03-11T00:25:12;2.08;;;0.65;;
40815;SDS011;26535;48.788;9.214;2023-03-11T00:27:38;0.95;;;0.50;;
40815;SDS011;26535;48.788;9.214;2023-03-11T00:30:04;2.50;;;0.80;;
40815;SDS011;26535;48.788;9.214;2023-03-11T06:02:17;4.93;;;0.80;;
40815;SDS011;26535;48.788;9.214;2023-03-11T06:04:45;3.03;;;0.63;;
40815;SDS011;26535;48.788;9.214;2023-03-11T06:07:11;2.67;;;0.70;;
40815;SDS011;26535;48.788;9.214;2023-03-11T06:09:39;5.70;;;1.13;;
40815;SDS011;26535;48.788;9.214;2023-03-11T06:12:09;4.63;;;1.05;;
40815;SDS011;26535;48.788;9.214;2023-03-11T06:14:52;6.82;;;0.80;;
40815;SDS011;26535;48.788;9.214;2023-03-11T06:17:18;3.92;;;1.10;;
40815;SDS011;26535;48.788;9.214;2023-03-11T06:19:44;2.80;;;0.70;;
40815;SDS011;26535;48.788;9.214;2023-03-11T06:22:10;6.22;;;1.27;;
40815;SDS011;26535;48.788;9.214;2023-03-11T06:24:36;5.18;;;0.80;;
40815;SDS011;26535;48.788;9.214;2023-03-11T06:27:02;3.45;;;0.80;;
40815;SDS011;26535;48.788;9.214;2023-03-11T06:29:28;4.43;;;0.77;;
40815;SDS011;26535;48.788;9.214;2023-03-11T06:31:54;4.90;;;0.77;;
40815;SDS011;26535;48.788;9.214;2023-03-11T06:34:20;2.92;;;0.80;;
40815;SDS011;26535;48.788;9.214;2023-03-11T06:36:46;2.80;;;0.80;;
40815;SDS011;26535;48.788;9.214;2023-03-11T06:39:13;4.95;;;0.90;;
40815;SDS011;26535;48.788;9.214;2023-03-11T06:41:40;3.30;;;0.70;;
40815;SDS011;26535;48.788;9.214;2023-03-11T06:44:10;4.05;;;0.73;;
40815;SDS011;26535;48.788;9.214;2023-03-11T06:46:37;5.47;;;0.80;;
40815;SDS011;26535;48.788;9.214;2023-03-11T06:49:03;7.53;;;1.05;;
40815;SDS011;26535;48.788;9.214;2023-03-11T06:51:29;3.80;;;0.88;;
40815;SDS011;26535;48.788;9.214;2023-03-11T06:53:55;4.85;;;1.02;;
40815;SDS011;26535;48.788;9.214;2023-03-11T06:56:23;2.10;;;0.73;;
40815;SDS011;26535;48.788;9.214;2023-03-11T06:58:54;3.55;;;0.80;;
40815;SDS011;26535;48.788;9.214;2023-03-11T07:01:22;4.07;;;0.65;;
40815;SDS011;26535;48.788;9.214;2023-03-11T07:06:16;3.72;;;0.70;;
40815;SDS011;26535;48.788;9.214;2023-03-11T07:08:49;8.95;;;1.13;;
40815;SDS011;26535;48.788;9.214;2023-03-11T07:11:17;6.65;;;0.80;;
40815;SDS011;26535;48.788;9.214;2023-03-11T07:13:50;4.28;;;1.20;;
40815;SDS011;26535;48.788;9.214;2023-03-11T07:16:18;4.45;;;1.00;;
40815;SDS011;26535;48.788;9.214;2023-03-11T07:18:47;4.97;;;0.88;;
40815;SDS011;26535;48.788;9.214;2023-03-11T07:21:15;4.87;;;0.80;;
40815;SDS011;26535;48.788;9.214;2023-03-11T07:23:43;8.00;;;1.17;;
40815;SDS011;26535;48.788;9.214;2023-03-11T07:26:10;4.72;;;0.80;;
40815;SDS011;26535;48.788;9.214;2023-03-11T07:28:36;4.95;;;0.80;;
40815;SDS011;26535;48.788;9.214;2023-03-11T07:31:06;4.00;;;1.70;;
40815;SDS011;26535;48.788;9.214;2023-03-11T07:33:33;4.78;;;0.80;;
40815;SDS011;26535;48.788;9.214;2023-03-11T07:35:59;4.72;;;1.00;;
40815;SDS011;26535;48.788;9.214;2023-03-11T07:38:36;4.03;;;1.03;;
40815;SDS011;26535;48.788;9.214;2023-03-11T07:41:17;5.60;;;0.90;;
40815;SDS011;26535;48.788;9.214;2023-03-11T07:43:42;4.75;;;1.02;;
40815;SDS011;26535;48.788;9.214;2023-03-11T07:46:10;5.05;;;0.90;;
40815;SDS011;26535;48.788;9.214;2023-03-11T07:48:40;4.45;;;0.80;;
40815;SDS011;26535;48.788;9.214;2023-03-11T07:51:08;4.13;;;1.17;;
40815;SDS011;26535;48.788;9.214;2023-03-11T07:53:35;4.47;;;0.98;;
40815;SDS011;26535;48.788;9.214;2023-03-11T07:56:02;8.23;;;1.55;;
40815;SDS011;26535;48.788;9.214;2023-03-11T07:58:28;6.78;;;0.85;;
40815;SDS011;26535;48.788;9.214;2023-03-11T08:00:54;9.15;;;1.25;;
40815;SDS011;26535;48.788;9.214;2023-03-11T08:03:24;5.68;;;1.10;;
40815;SDS011;26535;48.788;9.214;2023-03-11T08:05:49;4.10;;;0.70;;
40815;SDS011;26535;48.788;9.214;2023-03-11T08:08:16;5.88;;;0.75;;
40815;SDS011;26535;48.788;9.214;2023-03-11T08:10:42;3.72;;;0.73;;
40815;SDS011;26535;48.788;9.214;2023-03-11T08:13:07;5.90;;;1.00;;
40815;SDS011;26535;48.788;9.214;2023-03-11T08:15:33;3.75;;;0.95;;
40815;SDS011;26535;48.788;9.214;2023-03-11T08:18:03;3.20;;;0.70;;
40815;SDS011;26535;48.788;9.214;2023-03-11T08:20:29;5.38;;;1.20;;
40815;SDS011;26535;48.788;9.214;2023-03-11T08:22:55;4.20;;;0.80;;
40815;SDS011;26535;48.788;9.214;2023-03-11T08:25:21;7.55;;;1.00;;
40815;SDS011;26535;48.788;9.214;2023-03-11T08:27:46;3.47;;;1.00;;
40815;SDS011;26535;48.788;9.214;2023-03-11T08:30:13;5.80;;;0.95;;
40815;SDS011;26535;48.788;9.214;2023-03-11T08:32:39;4.13;;;0.75;;
40815;SDS011;26535;48.788;9.214;2023-03-11T08:35:05;3.88;;;0.95;;
40815;SDS011;26535;48.788;9.214;2023-03-11T08:37:31;3.72;;;0.68;;
40815;SDS011;26535;48.788;9.214;2023-03-11T08:39:56;4.30;;;1.02;;
40815;SDS011;26535;48.788;9.214;2023-03-11T08:42:22;4.60;;;1.35;;
40815;SDS011;26535;48.788;9.214;2023-03-11T08:44:48;3.85;;;0.70;;
40815;SDS011;26535;48.788;9.214;2023-03-11T08:47:13;2.50;;;0.70;;
40815;SDS011;26535;48.788;9.214;2023-03-11T08:49:39;6.15;;;0.93;;
40815;SDS011;26535;48.788;9.214;2023-03-11T08:52:05;3.20;;;1.10;;
40815;SDS011;26535;48.788;9.214;2023-03-11T08:54:31;7.90;;;1.17;;
40815;SDS011;26535;48.788;9.214;2023-03-11T08:56:57;6.10;;;0.98;;
40815;SDS011;26535;48.788;9.214;2023-03-11T08:59:27;4.53;;;0.90;;
40815;SDS011;26535;48.788;9.214;2023-03-11T09:01:56;3.28;;;0.70;;
40815;SDS011;26535;48.788;9.214;2023-03-11T09:04:22;7.15;;;0.88;;
40815;SDS011;26535;48.788;9.214;2023-03-11T09:06:47;3.22;;;0.80;;
40815;SDS011;26535;48.788;9.214;2023-03-11T09:09:13;2.60;;;0.70;;
40815;SDS011;26535;48.788;9.214;2023-03-11T09:11:46;3.60;;;0.82;;
40815;SDS011;26535;48.788;9.214;2023-03-11T09:14:12;3.45;;;0.80;;
40815;SDS011;26535;48.788;9.214;2023-03-11T09:16:38;2.70;;;0.77;;
40815;SDS011;26535;48.788;9.214;2023-03-11T09:19:04;5.55;;;0.90;;
40815;SDS011;26535;48.788;9.214;2023-03-11T09:21:32;3.45;;;0.85;;
40815;SDS011;26535;48.788;9.214;2023-03-11T09:23:58;4.28;;;0.93;;
40815;SDS011;26535;48.788;9.214;2023-03-11T09:26:25;4.47;;;1.00;;
40815;SDS011;26535;48.788;9.214;2023-03-11T09:28:51;3.33;;;0.80;;
40815;SDS011;26535;48.788;9.214;2023-03-11T09:31:17;6.15;;;0.90;;
40815;SDS011;26535;48.788;9.214;2023-03-11T09:33:43;5.72;;;1.30;;
40815;SDS011;26535;48.788;9.214;2023-03-11T09:36:11;3.88;;;1.13;;
40815;SDS011;26535;48.788;9.214;2023-03-11T09:38:38;4.82;;;0.98;;
40815;SDS011;26535;48.788;9.214;2023-03-11T09:41:48;3.10;;;0.80;;
40815;SDS011;26535;48.788;9.214;2023-03-11T09:44:20;7.22;;;0.95;;
40815;SDS011;26535;48.788;9.214;2023-03-11T09:55:34;4.40;;;1.25;;
40815;SDS011;26535;48.788;9.214;2023-03-11T09:58:25;4.05;;;0.80;;
40815;SDS011;26535;48.788;9.214;2023-03-11T10:04:01;5.00;;;0.80;;
40815;SDS011;26535;48.788;9.214;2023-03-11T10:06:44;3.88;;;0.80;;
40815;SDS011;26535;48.788;9.214;2023-03-11T10:20:03;2.13;;;0.55;;
40815;SDS011;26535;48.788;9.214;2023-03-11T10:25:32;4.13;;;0.80;;
40815;SDS011;26535;48.788;9.214;2023-03-11T10:28:13;3.50;;;0.73;;
40815;SDS011;26535;48.788;9.214;2023-03-11T10:30:46;2.13;;;0.43;;
40815;SDS011;26535;48.788;9.214;2023-03-11T10:36:04;4.90;;;0.80;;
40815;SDS011;26535;48.788;9.214;2023-03-11T10:38:36;3.85;;;0.93;;
40815;SDS011;26535;48.788;9.214;2023-03-11T10:41:12;2.70;;;0.70;;
40815;SDS011;26535;48.788;9.214;2023-03-11T10:43:58;3.05;;;0.60;;
40815;SDS011;26535;48.788;9.214;2023-03-11T10:46:28;1.52;;;0.47;;
40815;SDS011;26535;48.788;9.214;2023-03-11T10:48:54;3.42;;;0.70;;
40815;SDS011;26535;48.788;9.214;2023-03-11T10:51:26;4.85;;;0.80;;
40815;SDS011;26535;48.788;9.214;2023-03-11T10:58:56;2.22;;;0.40;;
40815;SDS011;26535;48.788;9.214;2023-03-11T11:01:23;3.10;;;0.40;;
40815;SDS011;26535;48.788;9.214;2023-03-11T11:03:50;2.53;;;0.55;;
40815;SDS011;26535;48.788;9.214;2023-03-11T11:06:27;3.80;;;0.60;;
40815;SDS011;26535;48.788;9.214;2023-03-11T11:09:03;4.05;;;0.70;;
40815;SDS011;26535;48.788;9.214;2023-03-11T11:11:38;3.38;;;0.80;;
40815;SDS011;26535;48.788;9.214;2023-03-11T11:14:04;3.55;;;0.60;;
40815;SDS011;26535;48.788;9.214;2023-03-11T11:16:31;4.32;;;0.70;;
40815;SDS011;26535;48.788;9.214;2023-03-11T11:21:27;4.80;;;0.68;;
40815;SDS011;26535;48.788;9.214;2023-03-11T11:24:23;3.25;;;0.63;;
40815;SDS011;26535;48.788;9.214;2023-03-11T11:29:39;3.60;;;0.57;;
40815;SDS011;26535;48.788;9.214;2023-03-11T11:32:14;2.70;;;0.55;;
40815;SDS011;26535;48.788;9.214;2023-03-11T11:35:00;3.28;;;0.55;;
40815;SDS011;26535;48.788;9.214;2023-03-11T11:37:36;2.35;;;0.70;;
40815;SDS011;26535;48.788;9.214;2023-03-11T11:40:28;4.97;;;0.57;;
40815;SDS011;26535;48.788;9.214;2023-03-11T11:42:55;2.42;;;0.50;;
40815;SDS011;26535;48.788;9.214;2023-03-11T11:48:07;3.22;;;0.70;;
40815;SDS011;26535;48.788;9.214;2023-03-11T11:50:39;4.13;;;0.55;;
40815;SDS011;26535;48.788;9.214;2023-03-11T11:53:18;1.88;;;0.50;;
40815;SDS011;26535;48.788;9.214;2023-03-11T11:55:48;2.00;;;0.63;;
40815;SDS011;26535;48.788;9.214;2023-03-11T11:58:16;3.33;;;0.65;;
40815;SDS011;26535;48.788;9.214;2023-03-11T12:00:52;2.97;;;0.63;;
40815;SDS011;26535;48.788;9.214;2023-03-11T12:03:37;1.98;;;0.50;;
40815;SDS011;26535;48.788;9.214;2023-03-11T12:09:08;2.17;;;0.50;;
40815;SDS011;26535;48.788;9.214;2023-03-11T12:14:51;2.72;;;0.70;;
40815;SDS011;26535;48.788;9.214;2023-03-11T12:17:10;1.40;;;0.38;;
40815;SDS011;26535;48.788;9.214;2023-03-11T12:27:42;2.28;;;0.45;;
40815;SDS011;26535;48.788;9.214;2023-03-11T12:30:47;2.35;;;0.45;;
40815;SDS011;26535;48.788;9.214;2023-03-11T12:33:16;2.08;;;0.47;;
40815;SDS011;26535;48.788;9.214;2023-03-11T12:35:51;2.33;;;0.65;;
40815;SDS011;26535;48.788;9.214;2023-03-11T12:38:30;2.40;;;0.52;;
40815;SDS011;26535;48.788;9.214;2023-03-11T12:41:24;3.22;;;0.50;;
40815;SDS011;26535;48.788;9.214;2023-03-11T12:46:17;4.15;;;0.90;;
40815;SDS011;26535;48.788;9.214;2023-03-11T12:53:54;2.58;;;0.63;;
40815;SDS011;26535;48.788;9.214;2023-03-11T13:02:15;2.63;;;0.60;;
40815;SDS011;26535;48.788;9.214;2023-03-11T13:07:34;2.13;;;0.50;;
40815;SDS011;26535;48.788;9.214;2023-03-11T13:10:45;3.08;;;0.60;;
40815;SDS011;26535;48.788;9.214;2023-03-11T13:15:48;2.10;;;0.50;;
40815;SDS011;26535;48.788;9.214;2023-03-11T13:18:20;3.92;;;0.70;;
40815;SDS011;26535;48.788;9.214;2023-03-11T13:20:49;2.55;;;0.60;;
40815;SDS011;26535;48.788;9.214;2023-03-11T13:23:27;2.45;;;0.60;;
40815;SDS011;26535;48.788;9.214;2023-03-11T13:28:54;2.28;;;0.55;;
40815;SDS011;26535;48.788;9.214;2023-03-11T13:37:29;3.70;;;0.60;;
40815;SDS011;26535;48.788;9.214;2023-03-11T13:40:11;2.17;;;0.55;;
40815;SDS011;26535;48.788;9.214;2023-03-11T13:42:54;3.20;;;0.65;;
40815;SDS011;26535;48.788;9.214;2023-03-11T13:45:29;3.08;;;0.77;;
40815;SDS011;26535;48.788;9.214;2023-03-11T13:48:06;2.28;;;0.63;;
40815;SDS011;26535;48.788;9.214;2023-03-11T13:50:42;3.15;;;0.68;;
40815;SDS011;26535;48.788;9.214;2023-03-11T13:53:19;3.13;;;0.60;;
40815;SDS011;26535;48.788;9.214;2023-03-11T13:55:49;2.00;;;0.60;;
40815;SDS011;26535;48.788;9.214;2023-03-11T13:58:20;2.90;;;0.93;;
40815;SDS011;26535;48.788;9.214;2023-03-11T14:00:57;2.20;;;0.60;;
40815;SDS011;26535;48.788;9.214;2023-03-11T14:03:26;4.90;;;0.77;;
40815;SDS011;26535;48.788;9.214;2023-03-11T14:05:57;2.58;;;0.85;;
40815;SDS011;26535;48.788;9.214;2023-03-11T14:08:33;3.13;;;0.52;;
40815;SDS011;26535;48.788;9.214;2023-03-11T14:13:39;2.15;;;0.70;;
40815;SDS011;26535;48.788;9.214;2023-03-11T14:16:17;2.63;;;0.70;;
40815;SDS011;26535;48.788;9.214;2023-03-11T14:19:32;2.72;;;0.60;;
40815;SDS011;26535;48.788;9.214;2023-03-11T14:21:42;2.53;;;0.60;;
40815;SDS011;26535;48.788;9.214;2023-03-11T14:26:54;3.33;;;1.08;;
40815;SDS011;26535;48.788;9.214;2023-03-11T14:29:31;4.45;;;0.93;;
40815;SDS011;26535;48.788;9.214;2023-03-11T14:32:00;2.38;;;0.90;;
40815;SDS011;26535;48.788;9.214;2023-03-11T14:34:50;2.38;;;0.60;;
40815;SDS011;26535;48.788;9.214;2023-03-11T14:37:21;3.30;;;0.93;;
40815;SDS011;26535;48.788;9.214;2023-03-11T14:39:56;4.38;;;1.27;;
40815;SDS011;26535;48.788;9.214;2023-03-11T14:42:26;2.13;;;0.60;;
40815;SDS011;26535;48.788;9.214;2023-03-11T14:45:01;2.25;;;0.50;;
40815;SDS011;26535;48.788;9.214;2023-03-11T14:47:53;3.03;;;0.70;;
40815;SDS011;26535;48.788;9.214;2023-03-11T14:50:34;2.20;;;0.68;;
40815;SDS011;26535;48.788;9.214;2023-03-11T14:53:18;2.05;;;0.55;;
40815;SDS011;26535;48.788;9.214;2023-03-11T14:55:49;3.45;;;0.63;;
40815;SDS011;26535;48.788;9.214;2023-03-11T14:58:33;3.28;;;0.70;;
40815;SDS011;26535;48.788;9.214;2023-03-11T15:01:05;3.22;;;1.13;;
40815;SDS011;26535;48.788;9.214;2023-03-11T15:03:44;3.33;;;1.25;;
40815;SDS011;26535;48.788;9.214;2023-03-11T15:06:23;4.43;;;1.00;;
40815;SDS011;26535;48.788;9.214;2023-03-11T15:08:54;2.83;;;0.80;;
40815;SDS011;26535;48.788;9.214;2023-03-11T15:11:22;3.22;;;0.70;;
40815;SDS011;26535;48.788;9.214;2023-03-11T15:13:49;2.38;;;0.80;;
40815;SDS011;26535;48.788;9.214;2023-03-11T15:16:34;3.03;;;0.98;;
40815;SDS011;26535;48.788;9.214;2023-03-11T15:19:01;3.88;;;1.00;;
40815;SDS011;26535;48.788;9.214;2023-03-11T15:21:47;2.70;;;0.73;;
40815;SDS011;26535;48.788;9.214;2023-03-11T15:24:21;4.30;;;0.70;;
40815;SDS011;26535;48.788;9.214;2023-03-11T15:26:53;3.97;;;1.00;;
40815;SDS011;26535;48.788;9.214;2023-03-11T15:29:24;5.25;;;0.70;;
40815;SDS011;26535;48.788;9.214;2023-03-11T15:31:51;4.13;;;0.90;;
40815;SDS011;26535;48.788;9.214;2023-03-11T15:36:44;4.55;;;0.95;;
40815;SDS011;26535;48.788;9.214;2023-03-11T15:41:59;2.95;;;0.70;;
40815;SDS011;26535;48.788;9.214;2023-03-11T15:44:31;2.65;;;0.70;;
40815;SDS011;26535;48.788;9.214;2023-03-11T15:47:11;4.70;;;1.00;;
40815;SDS011;26535;48.788;9.214;2023-03-11T15:49:42;4.18;;;0.68;;
40815;SDS011;26535;48.788;9.214;2023-03-11T15:52:08;4.35;;;1.67;;
40815;SDS011;26535;48.788;9.214;2023-03-11T15:54:34;3.90;;;0.80;;
40815;SDS011;26535;48.788;9.214;2023-03-11T15:57:00;4.60;;;1.05;;
40815;SDS011;26535;48.788;9.214;2023-03-11T15:59:30;5.15;;;1.75;;
40815;SDS011;26535;48.788;9.214;2023-03-11T16:01:56;3.40;;;0.80;;
40815;SDS011;26535;48.788;9.214;2023-03-11T16:04:23;3.65;;;0.93;;
40815;SDS011;26535;48.788;9.214;2023-03-11T16:06:49;3.47;;;0.90;;
40815;SDS011;26535;48.788;9.214;2023-03-11T16:09:15;3.35;;;0.93;;
40815;SDS011;26535;48.788;9.214;2023-03-11T16:11:42;4.75;;;1.02;;
40815;SDS011;26535;48.788;9.214;2023-03-11T16:14:10;5.25;;;1.60;;
40815;SDS011;26535;48.788;9.214;2023-03-11T16:16:40;6.72;;;1.25;;
40815;SDS011;26535;48.788;9.214;2023-03-11T16:19:06;4.13;;;1.15;;
40815;SDS011;26535;48.788;9.214;2023-03-11T16:21:33;3.88;;;0.98;;
40815;SDS011;26535;48.788;9.214;2023-03-11T16:24:02;2.75;;;1.02;;
40815;SDS011;26535;48.788;9.214;2023-03-11T16:26:29;4.07;;;1.00;;
40815;SDS011;26535;48.788;9.214;2023-03-11T16:28:56;3.78;;;1.00;;
40815;SDS011;26535;48.788;9.214;2023-03-11T16:31:22;4.90;;;0.80;;
40815;SDS011;26535;48.788;9.214;2023-03-11T16:33:48;5.15;;;1.35;;
40815;SDS011;26535;48.788;9.214;2023-03-11T16:36:14;4.28;;;1.00;;
40815;SDS011;26535;48.788;9.214;2023-03-11T16:38:42;5.90;;;1.13;;
40815;SDS011;26535;48.788;9.214;2023-03-11T16:41:09;4.18;;;1.00;;
40815;SDS011;26535;48.788;9.214;2023-03-11T16:43:35;3.47;;;1.10;;
40815;SDS011;26535;48.788;9.214;2023-03-11T16:46:01;4.45;;;1.25;;
40815;SDS011;26535;48.788;9.214;2023-03-11T16:48:27;5.20;;;1.30;;
40815;SDS011;26535;48.788;9.214;2023-03-11T16:50:52;3.65;;;1.17;;
40815;SDS011;26535;48.788;9.214;2023-03-11T16:53:18;3.90;;;1.20;;
40815;SDS011;26535;48.788;9.214;2023-03-11T16:55:44;4.63;;;1.10;;
40815;SDS011;26535;48.788;9.214;2023-03-11T16:58:11;5.68;;;1.40;;
40815;SDS011;26535;48.788;9.214;2023-03-11T17:00:38;3.08;;;1.08;;
40815;SDS011;26535;48.788;9.214;2023-03-11T17:03:06;3.92;;;1.13;;
40815;SDS011;26535;48.788;9.214;2023-03-11T17:05:32;7.97;;;1.17;;
40815;SDS011;26535;48.788;9.214;2023-03-11T17:07:58;5.15;;;1.13;;
40815;SDS011;26535;48.788;9.214;2023-03-11T17:10:26;4.45;;;1.23;;
40815;SDS011;26535;48.788;9.214;2023-03-11T17:12:52;4.75;;;1.50;;
40815;SDS011;26535;48.788;9.214;2023-03-11T17:15:19;6.45;;;1.65;;
40815;SDS011;26535;48.788;9.214;2023-03-11T17:17:45;7.78;;;1.77;;
40815;SDS011;26535;48.788;9.214;2023-03-11T17:20:11;6.70;;;1.92;;
40815;SDS011;26535;48.788;9.214;2023-03-11T17:22:37;7.07;;;1.80;;
40815;SDS011;26535;48.788;9.214;2023-03-11T17:25:03;6.60;;;1.73;;
40815;SDS011;26535;48.788;9.214;2023-03-11T17:27:30;5.22;;;1.75;;
40815;SDS011;26535;48.788;9.214;2023-03-11T17:29:57;7.15;;;1.90;;
40815;SDS011;26535;48.788;9.214;2023-03-11T17:32:23;7.10;;;1.65;;
40815;SDS011;26535;48.788;9.214;2023-03-11T17:34:50;5.10;;;1.60;;
40815;SDS011;26535;48.788;9.214;2023-03-11T17:37:16;5.85;;;1.23;;
40815;SDS011;26535;48.788;9.214;2023-03-11T17:39:41;3.58;;;1.13;;
40815;SDS011;26535;48.788;9.214;2023-03-11T17:42:07;5.70;;;1.20;;
40815;SDS011;26535;48.788;9.214;2023-03-11T17:44:33;4.70;;;1.10;;
40815;SDS011;26535;48.788;9.214;2023-03-11T17:46:58;4.68;;;1.30;;
40815;SDS011;26535;48.788;9.214;2023-03-11T17:49:24;5.47;;;1.52;;
40815;SDS011;26535;48.788;9.214;2023-03-11T17:51:50;5.93;;;1.42;;
40815;SDS011;26535;48.788;9.214;2023-03-11T17:54:16;6.82;;;1.45;;
40815;SDS011;26535;48.788;9.214;2023-03-11T17:56:41;4.18;;;1.30;;
40815;SDS011;26535;48.788;9.214;2023-03-11T17:59:08;9.18;;;2.05;;
40815;SDS011;26535;48.788;9.214;2023-03-11T18:01:33;6.60;;;2.08;;
40815;SDS011;26535;48.788;9.214;2023-03-11T18:03:59;7.82;;;2.17;;
40815;SDS011;26535;48.788;9.214;2023-03-11T18:06:26;7.30;;;2.13;;
40815;SDS011;26535;48.788;9.214;2023-03-11T18:08:52;4.28;;;1.55;;
40815;SDS011;26535;48.788;9.214;2023-03-11T18:11:19;6.40;;;2.13;;
40815;SDS011;26535;48.788;9.214;2023-03-11T18:13:47;4.80;;;1.63;;
40815;SDS011;26535;48.788;9.214;2023-03-11T18:16:17;5.22;;;1.55;;
40815;SDS011;26535;48.788;9.214;2023-03-11T18:18:45;6.03;;;1.98;;
40815;SDS011;26535;48.788;9.214;2023-03-11T18:21:13;5.57;;;1.85;;
40815;SDS011;26535;48.788;9.214;2023-03-11T18:23:39;6.50;;;1.70;;
40815;SDS011;26535;48.788;9.214;2023-03-11T18:26:06;3.70;;;1.77;;
40815;SDS011;26535;48.788;9.214;2023-03-11T18:28:33;3.70;;;1.55;;
40815;SDS011;26535;48.788;9.214;2023-03-11T18:31:07;4.68;;;1.63;;
40815;SDS011;26535;48.788;9.214;2023-03-11T18:33:37;3.97;;;1.27;;
40815;SDS011;26535;48.788;9.214;2023-03-11T18:36:19;3.55;;;1.40;;
40815;SDS011;26535;48.788;9.214;2023-03-11T18:38:47;6.35;;;1.65;;
40815;SDS011;26535;48.788;9.214;2023-03-11T18:41:14;5.72;;;1.63;;
40815;SDS011;26535;48.788;9.214;2023-03-11T18:43:40;4.90;;;1.45;;
40815;SDS011;26535;48.788;9.214;2023-03-11T18:46:10;4.32;;;1.55;;
40815;SDS011;26535;48.788;9.214;2023-03-11T18:48:40;5.55;;;1.58;;
40815;SDS011;26535;48.788;9.214;2023-03-11T18:51:06;7.45;;;1.92;;
40815;SDS011;26535;48.788;9.214;2023-03-11T18:53:33;7.88;;;2.13;;
40815;SDS011;26535;48.788;9.214;2023-03-11T18:56:02;11.07;;;2.95;;
40815;SDS011;26535;48.788;9.214;2023-03-11T18:58:29;7.95;;;2.63;;
40815;SDS011;26535;48.788;9.214;2023-03-11T19:01:01;7.70;;;2.40;;
40815;SDS011;26535;48.788;9.214;2023-03-11T19:03:32;8.43;;;2.38;;
40815;SDS011;26535;48.788;9.214;2023-03-11T19:05:57;6.38;;;2.53;;
40815;SDS011;26535;48.788;9.214;2023-03-11T19:08:24;7.75;;;2.63;;
40815;SDS011;26535;48.788;9.214;2023-03-11T19:10:51;6.90;;;2.30;;
40815;SDS011;26535;48.788;9.214;2023-03-11T19:13:17;9.32;;;2.60;;
40815;SDS011;26535;48.788;9.214;2023-03-11T19:15:43;6.90;;;2.90;;
40815;SDS011;26535;48.788;9.214;2023-03-11T19:18:09;7.05;;;3.28;;
40815;SDS011;26535;48.788;9.214;2023-03-11T19:20:35;8.93;;;2.75;;
40815;SDS011;26535;48.788;9.214;2023-03-11T19:23:02;8.88;;;3.03;;
40815;SDS011;26535;48.788;9.214;2023-03-11T19:25:29;12.23;;;4.35;;
40815;SDS011;26535;48.788;9.214;2023-03-11T19:27:55;10.82;;;4.03;;
40815;SDS011;26535;48.788;9.214;2023-03-11T19:30:21;10.93;;;4.50;;
40815;SDS011;26535;48.788;9.214;2023-03-11T19:32:47;10.50;;;4.15;;
40815;SDS011;26535;48.788;9.214;2023-03-11T19:35:16;10.80;;;3.70;;
40815;SDS011;26535;48.788;9.214;2023-03-11T19:37:46;11.85;;;3.97;;
40815;SDS011;26535;48.788;9.214;2023-03-11T19:40:13;13.35;;;5.07;;
40815;SDS011;26535;48.788;9.214;2023-03-11T19:42:39;11.20;;;4.90;;
40815;SDS011;26535;48.788;9.214;2023-03-11T19:45:05;19.67;;;9.70;;
40815;SDS011;26535;48.788;9.214;2023-03-11T19:47:31;43.13;;;20.67;;
40815;SDS011;26535;48.788;9.214;2023-03-11T19:49:57;38.30;;;18.88;;
40815;SDS011;26535;48.788;9.214;2023-03-11T19:52:23;20.15;;;11.30;;
40815;SDS011;26535;48.788;9.214;2023-03-11T19:54:48;20.48;;;10.57;;
40815;SDS011;26535;48.788;9.214;2023-03-11T19:57:14;20.83;;;13.75;;
40815;SDS011;26535;48.788;9.214;2023-03-11T19:59:41;18.35;;;12.20;;
40815;SDS011;26535;48.788;9.214;2023-03-11T20:02:10;23.17;;;14.68;;
40815;SDS011;26535;48.788;9.214;2023-03-11T20:04:36;14.60;;;8.65;;
40815;SDS011;26535;48.788;9.214;2023-03-11T20:07:02;16.52;;;7.90;;
40815;SDS011;26535;48.788;9.214;2023-03-11T20:09:30;14.15;;;8.68;;
40815;SDS011;26535;48.788;9.214;2023-03-11T20:11:56;12.73;;;8.45;;
40815;SDS011;26535;48.788;9.214;2023-03-11T20:14:22;12.57;;;6.35;;
40815;SDS011;26535;48.788;9.214;2023-03-11T20:16:48;11.43;;;5.93;;
40815;SDS011;26535;48.788;9.214;2023-03-11T20:19:14;12.52;;;5.60;;
40815;SDS011;26535;48.788;9.214;2023-03-11T20:21:40;12.32;;;6.65;;
40815;SDS011;26535;48.788;9.214;2023-03-11T20:24:06;16.75;;;8.40;;
40815;SDS011;26535;48.788;9.214;2023-03-11T20:26:32;20.00;;;11.20;;
40815;SDS011;26535;48.788;9.214;2023-03-11T20:28:58;12.80;;;7.25;;
40815;SDS011;26535;48.788;9.214;2023-03-11T20:31:24;10.98;;;5.20;;
40815;SDS011;26535;48.788;9.214;2023-03-11T20:33:52;15.40;;;7.88;;
40815;SDS011;26535;48.788;9.214;2023-03-11T20:36:20;15.98;;;7.50;;
40815;SDS011;26535;48.788;9.214;2023-03-11T20:41:23;9.57;;;5.25;;
40815;SDS011;26535;48.788;9.214;2023-03-11T20:43:51;11.90;;;5.75;;
40815;SDS011;26535;48.788;9.214;2023-03-11T20:46:17;12.67;;;6.40;;
40815;SDS011;26535;48.788;9.214;2023-03-11T20:48:43;12.65;;;5.50;;
40815;SDS011;26535;48.788;9.214;2023-03-11T20:51:14;10.75;;;5.30;;
40815;SDS011;26535;48.788;9.214;2023-03-11T20:53:43;9.80;;;5.43;;
40815;SDS011;26535;48.788;9.214;2023-03-11T20:56:10;10.65;;;5.82;;
40815;SDS011;26535;48.788;9.214;2023-03-11T20:58:38;11.63;;;6.03;;
40815;SDS011;26535;48.788;9.214;2023-03-11T21:01:09;9.48;;;5.88;;
40815;SDS011;26535;48.788;9.214;2023-03-11T21:03:39;14.05;;;6.15;;
40815;SDS011;26535;48.788;9.214;2023-03-11T21:06:11;14.88;;;6.75;;
40815;SDS011;26535;48.788;9.214;2023-03-11T21:08:41;13.23;;;6.53;;
40815;SDS011;26535;48.788;9.214;2023-03-11T21:11:06;14.43;;;7.05;;
40815;SDS011;26535;48.788;9.214;2023-03-11T21:13:32;12.63;;;6.07;;
40815;SDS011;26535;48.788;9.214;2023-03-11T21:16:00;10.67;;;5.73;;
40815;SDS011;26535;48.788;9.214;2023-03-11T21:18:29;10.27;;;5.03;;
40815;SDS011;26535;48.788;9.214;2023-03-11T21:20:55;12.70;;;5.68;;
40815;SDS011;26535;48.788;9.214;2023-03-11T21:23:21;10.52;;;5.20;;
40815;SDS011;26535;48.788;9.214;2023-03-11T21:25:47;12.27;;;5.35;;
40815;SDS011;26535;48.788;9.214;2023-03-11T21:28:12;10.45;;;5.38;;
40815;SDS011;26535;48.788;9.214;2023-03-11T21:30:38;13.77;;;5.45;;
40815;SDS011;26535;48.788;9.214;2023-03-11T21:33:08;13.60;;;6.63;;
40815;SDS011;26535;48.788;9.214;2023-03-11T21:35:34;12.25;;;6.45;;
40815;SDS011;26535;48.788;9.214;2023-03-11T21:37:59;13.95;;;5.97;;
40815;SDS011;26535;48.788;9.214;2023-03-11T21:40:25;12.15;;;6.28;;
40815;SDS011;26535;48.788;9.214;2023-03-11T21:42:51;12.77;;;6.43;;
40815;SDS011;26535;48.788;9.214;2023-03-11T21:45:17;11.10;;;5.72;;
40815;SDS011;26535;48.788;9.214;2023-03-11T21:47:43;9.88;;;5.25;;
40815;SDS011;26535;48.788;9.214;2023-03-11T21:50:09;14.82;;;6.25;;
40815;SDS011;26535;48.788;9.214;2023-03-11T21:52:35;11.50;;;5.82;;
40815;SDS011;26535;48.788;9.214;2023-03-11T21:55:01;13.48;;;5.28;;
40815;SDS011;26535;48.788;9.214;2023-03-11T21:57:26;10.88;;;5.25;;
40815;SDS011;26535;48.788;9.214;2023-03-11T21:59:52;10.82;;;5.43;;
40815;SDS011;26535;48.788;9.214;2023-03-11T22:02:17;8.38;;;4.13;;
40815;SDS011;26535;48.788;9.214;2023-03-11T22:04:43;8.75;;;4.57;;
40815;SDS011;26535;48.788;9.214;2023-03-11T22:07:09;9.35;;;3.83;;